Latest Coastal Weather Observations for Cairns

IDQ60701

Issued at 2:02 pm EST Monday 1 March 2021 (issued every 10 minutes, with the page automatically refreshed every 10 minutes)

About coastal observations | Map of coastal stations | Coastal observations for QLD | Marine services | Other Formats
Station Details ID: 031011 Name: CAIRNS AERO Lat: -16.87 Lon: 145.75 Height: 2.22 m
Data from the previous 72 hours. | See also: Recent months at Cairns
Date/Time
EST
Wind Sea
Height
m
Swell Vis
km
Cloud Weather Temp
°C
Press
MSL
hPa
Rain since
9am
mm
Dir  Spd
kts
Gust
kts
Height
m
Period
s
Dir
01/02:00pm SSE 19 32 - - - - 10 Partly cloudy - 23.5 997.4 24.6
01/01:41pm SSE 20 33 - - - - 10 Partly cloudy - 23.5 997.3 23.4
01/01:30pm SSE 21 43 - - - - 6 Partly cloudy - 22.9 997.4 23.0
01/01:18pm SSE 21 46 - - - - 7 Partly cloudy - 23.2 997.7 21.6
01/01:11pm S 9 32 - - - - 5 Partly cloudy - 23.2 997.4 21.0
01/01:00pm SSE 13 25 - - - - 4 Partly cloudy - 22.8 998.2 19.2
01/12:30pm W 4 16 - - - - 5 Partly cloudy - 23.4 998.9 11.8
01/12:12pm E 6 13 - - - - 6 Partly cloudy - 23.6 999.4 8.4
01/12:00pm W 3 8 - - - - 9 Cloudy Rain 23.3 999.7 6.8
01/11:30am SSE 7 17 - - - - 10 Partly cloudy - 24.0 1000.0 3.8
01/11:00am SSE 11 28 - - - - 10 Cloudy - 24.1 999.9 2.4
01/10:43am SE 10 22 - - - - 10 Partly cloudy - 25.2 999.8 1.8
01/10:30am SSE 4 10 - - - - 10 Partly cloudy - 25.4 1000.1 1.6
01/10:00am W 1 3 - - - - 10 Partly cloudy - 24.4 1000.5 1.4
01/09:30am SSE 3 11 - - - - 10 Partly cloudy - 24.5 1000.9 1.2
01/09:00am SSE 4 12 - - - - 10 Cloudy Rain 24.6 1001.1 10.6
01/08:30am SSE 6 14 - - - - 10 Partly cloudy - 24.8 1001.3 9.2
01/08:00am W 5 7 - - - - 10 Partly cloudy - 22.8 1001.0 8.6
01/07:48am W 6 8 - - - - 10 Partly cloudy - 22.7 1000.9 8.6
01/07:30am W 5 8 - - - - 3 Partly cloudy - 22.9 1001.0 7.8
01/07:13am SSE 4 6 - - - - 6 Partly cloudy - 23.2 1001.2 3.4
01/07:00am SSE 4 9 - - - - 10 Partly cloudy - 23.3 1000.8 1.2
01/06:30am SSE 9 12 - - - - 10 Partly cloudy - 23.3 1000.4 0.0
01/06:00am SE 7 13 - - - - 10 Cloudy Showers 24.7 1000.6 0.0
01/05:30am W 2 4 - - - - 10 Cloudy - 25.1 1000.4 0.0
01/05:00am WNW 4 8 - - - - 10 Partly cloudy - 24.8 999.8 0.0
01/04:30am WNW 2 3 - - - - 10 Partly cloudy - 24.3 999.9 0.0
01/04:00am W 2 4 - - - - 10 - - 24.1 1000.0 0.0
01/03:30am W 1 2 - - - - 10 - - 24.0 1000.3 0.0
01/03:00am CALM 0 0 - - - - 10 Cloudy - 24.4 1000.5 0.0
01/02:30am W 1 2 - - - - 10 Partly cloudy - 25.2 1001.0 0.0
01/02:00am W 2 4 - - - - 10 Partly cloudy - 25.5 1001.9 0.0
01/01:30am WNW 1 2 - - - - 10 Partly cloudy - 25.3 1002.4 0.0
01/01:00am W 3 4 - - - - 10 Partly cloudy - 25.4 1003.1 0.0
01/12:30am W 2 3 - - - - 10 Partly cloudy - 25.2 1003.3 0.0
01/12:00am WSW 2 3 - - - - 10 Cloudy - 25.6 1003.2 0.0
 
Date/Time
EST
Wind Sea
Height
m
Swell Vis
km
Cloud Weather Temp
°C
Press
MSL
hPa
Rain since
9am
mm
Dir  Spd
kts
Gust
kts
Height
m
Period
s
Dir
28/11:30pm SSW 3 8 - - - - 10 Partly cloudy - 26.7 1003.2 0.0
28/11:00pm CALM 0 0 - - - - 10 - - 25.0 1003.5 0.0
28/10:30pm SSW 2 3 - - - - 10 Partly cloudy - 26.1 1003.6 0.0
28/10:00pm SE 3 6 - - - - 10 Cloudy - 26.8 1004.1 0.0
28/09:30pm SE 2 5 - - - - 10 Cloudy - 26.7 1003.9 0.0
28/09:00pm S 3 7 - - - - 10 Mostly cloudy - 26.9 1003.9 0.0
28/08:30pm SE 6 9 - - - - 10 Partly cloudy - 26.9 1003.9 0.0
28/08:00pm CALM 0 1 - - - - 10 Partly cloudy - 26.6 1003.8 0.0
28/07:30pm SSE 3 6 - - - - 10 - - 27.1 1003.3 0.0
28/07:00pm SSE 10 14 - - - - 10 Partly cloudy - 27.5 1002.4 0.0
28/06:30pm SSE 9 15 - - - - 10 Partly cloudy - 28.0 1002.1 0.0
28/06:00pm SSE 10 14 - - - - 10 Cloudy - 28.7 1001.8 0.0
28/05:30pm SE 12 19 - - - - 10 Partly cloudy - 29.3 1001.5 0.0
28/05:00pm SSE 11 15 - - - - 10 - - 30.0 1001.2 0.0
28/04:30pm SSE 13 19 - - - - 10 Partly cloudy - 30.2 1001.2 0.0
28/04:00pm SSE 13 19 - - - - 10 Partly cloudy - 30.7 1001.2 0.0
28/03:30pm SSE 15 21 - - - - 10 Partly cloudy - 31.4 1001.1 0.0
28/03:00pm SSE 13 20 - - - - 10 Mostly clear - 31.4 1001.3 0.0
28/02:30pm SSE 12 18 - - - - 10 Cloudy - 31.3 1001.8 0.0
28/02:00pm SSE 13 15 - - - - 10 Partly cloudy - 31.3 1001.8 0.0
28/01:30pm SSE 10 14 - - - - 10 Partly cloudy - 31.7 1002.3 0.0
28/01:00pm SSE 11 14 - - - - 10 Partly cloudy - 31.8 1003.0 0.0
28/12:30pm SSE 9 13 - - - - 10 - - 31.7 1003.6 0.0
28/12:00pm SSE 13 19 - - - - 10 - - 31.1 1003.9 0.0
28/11:30am SSE 6 15 - - - - 10 - - 30.5 1004.6 0.0
28/11:00am SSE 8 14 - - - - 10 - - 29.9 1005.0 0.0
28/10:30am SSE 7 11 - - - - 10 - - 29.0 1005.5 0.0
28/10:00am SSE 6 8 - - - - 10 Partly cloudy - 28.3 1005.8 0.0
28/09:30am SSE 4 6 - - - - 10 - - 27.5 1005.9 0.0
28/09:00am S 5 7 - - - - 10 Partly cloudy - 27.1 1005.8 4.2
28/08:30am E 2 3 - - - - 10 Partly cloudy - 26.5 1005.9 4.2
28/08:00am SW 1 2 - - - - 10 Partly cloudy - 25.7 1005.9 4.2
28/07:30am S 4 7 - - - - 10 Partly cloudy - 25.3 1005.8 4.2
28/07:00am S 3 6 - - - - 10 Partly cloudy - 24.7 1005.3 4.2
28/06:30am SE 4 6 - - - - 10 Partly cloudy - 24.5 1005.0 4.2
28/06:00am SW 2 4 - - - - 10 Cloudy Rain 24.3 1004.8 4.2
28/05:30am S 4 6 - - - - 10 Partly cloudy - 24.4 1004.9 3.6
28/05:00am S 7 11 - - - - 10 Partly cloudy - 24.6 1004.7 2.8
28/04:42am S 7 11 - - - - 10 Partly cloudy - 24.3 1004.3 2.8
28/04:30am SSE 4 9 - - - - 10 Partly cloudy - 24.2 1004.4 2.8
28/04:15am SE 3 5 - - - - 10 Partly cloudy - 24.4 1004.4 2.8
28/04:00am SE 4 6 - - - - 10 Partly cloudy - 24.4 1004.2 2.8
28/03:30am SSE 5 9 - - - - 10 Partly cloudy - 24.4 1004.2 2.6
28/03:00am S 6 10 - - - - 10 Mostly cloudy Rain 24.6 1004.2 2.0
28/02:30am S 6 10 - - - - 10 Partly cloudy - 24.8 1004.9 1.4
28/02:00am SE 6 9 - - - - 10 Partly cloudy - 24.9 1005.5 0.8
28/01:30am SSE 5 8 - - - - 10 Partly cloudy - 24.8 1005.8 0.8
28/01:00am SE 5 7 - - - - 10 Partly cloudy - 24.9 1005.9 0.8
28/12:30am S 4 8 - - - - 10 Partly cloudy - 24.9 1006.1 0.8
28/12:00am S 5 9 - - - - 10 Partly cloudy Rain 25.0 1006.6 0.8
 
Date/Time
EST
Wind Sea
Height
m
Swell Vis
km
Cloud Weather Temp
°C
Press
MSL
hPa
Rain since
9am
mm
Dir  Spd
kts
Gust
kts
Height
m
Period
s
Dir
27/11:30pm S 4 7 - - - - 10 Partly cloudy - 24.9 1006.9 0.8
27/11:10pm SSE 7 11 - - - - 10 Partly cloudy - 25.2 1007.0 0.6
27/11:00pm SSE 4 8 - - - - 10 Partly cloudy - 25.3 1007.2 0.6
27/10:57pm SSE 4 7 - - - - 10 Partly cloudy - 25.3 1007.2 0.6
27/10:54pm SSE 4 7 - - - - 10 Partly cloudy - 25.3 1007.2 0.6
27/10:36pm SSE 5 8 - - - - 6 Partly cloudy - 25.5 1007.3 0.6
27/10:30pm SSE 4 8 - - - - 10 Partly cloudy - 25.9 1007.2 0.4
27/10:00pm S 4 9 - - - - 10 Partly cloudy - 25.9 1006.8 0.4
27/09:30pm S 7 11 - - - - 10 Partly cloudy - 25.8 1006.5 0.4
27/09:00pm SSE 6 12 - - - - 10 Mostly clear - 25.4 1006.4 0.4
27/08:30pm S 5 10 - - - - 10 Partly cloudy - 25.3 1006.0 0.4
27/08:00pm S 4 8 - - - - 10 Partly cloudy - 25.1 1005.6 0.4
27/07:33pm S 6 9 - - - - 10 Partly cloudy - 25.1 1005.3 0.4
27/07:30pm SSE 6 10 - - - - 10 Partly cloudy - 25.1 1005.3 0.4
27/07:09pm SSE 10 14 - - - - 6 Partly cloudy - 25.5 1005.3 0.0
27/07:00pm SSE 10 14 - - - - 10 Partly cloudy - 26.0 1005.1 0.0
27/06:30pm ESE 8 10 - - - - 10 Partly cloudy - 26.6 1004.7 0.0
27/06:17pm SE 7 9 - - - - 10 Cloudy - 26.9 1004.5 0.0
27/06:00pm SE 8 11 - - - - 10 Cloudy - 26.9 1004.3 0.0
27/05:42pm SE 7 11 - - - - 10 Partly cloudy - 27.1 1004.1 0.0
27/05:30pm SSE 4 7 - - - - 10 Partly cloudy - 27.4 1004.0 0.0
27/05:00pm SE 7 9 - - - - 10 Partly cloudy - 27.8 1003.6 0.0
27/04:30pm SE 8 10 - - - - 10 Partly cloudy - 28.1 1003.5 0.0
27/04:00pm SSE 8 11 - - - - 10 Partly cloudy - 28.2 1003.2 0.0
27/03:30pm SSE 8 12 - - - - 10 Partly cloudy - 28.2 1003.1 0.0
27/03:00pm SE 10 13 - - - - 10 - - 28.1 1003.4 0.0
27/02:30pm SE 11 14 - - - - 10 Partly cloudy - 28.7 1003.8 0.0
27/02:00pm SE 11 14 - - - - 10 Partly cloudy - 29.0 1004.1 0.0
27/01:30pm SE 11 15 - - - - 10 Partly cloudy - 30.1 1004.3 0.0
27/01:00pm ESE 11 14 - - - - 10 Partly cloudy - 30.7 1004.4 0.0
27/12:30pm SE 11 14 - - - - 10 Partly cloudy - 30.4 1004.9 0.0
27/12:00pm SE 9 14 - - - - 10 Partly cloudy - 30.6 1005.3 0.0
27/11:30am S 5 12 - - - - 10 Partly cloudy - 30.0 1005.8 0.0
27/11:00am SSE 8 14 - - - - 10 Partly cloudy - 30.0 1006.2 0.0
27/10:30am SSE 8 11 - - - - 10 Partly cloudy - 29.7 1006.3 0.0
27/10:00am SSE 4 7 - - - - 10 - - 28.4 1006.4 0.0
27/09:30am SSE 5 8 - - - - 10 - - 27.5 1006.0 0.0
27/09:00am S 5 9 - - - - 10 - - 26.9 1005.9 3.8
27/08:30am SE 5 9 - - - - 10 - - 26.8 1005.8 3.8
27/08:00am SE 4 6 - - - - 10 - - 25.9 1005.7 3.8
27/07:30am NNW 1 3 - - - - 10 - - 25.9 1005.4 3.8
27/07:00am CALM 0 2 - - - - 10 - - 24.7 1005.1 3.8
27/06:30am WSW 1 2 - - - - 10 - - 24.6 1004.7 3.8
27/06:00am SE 3 5 - - - - 10 Mostly clear - 24.6 1004.6 3.8
27/05:30am WSW 1 3 - - - - 10 Partly cloudy - 24.4 1004.5 3.8
27/05:00am W 1 4 - - - - 10 Partly cloudy - 24.5 1004.1 3.8
27/04:30am CALM 0 2 - - - - 10 Partly cloudy - 24.5 1003.9 3.8
27/04:00am E 3 5 - - - - 10 Cloudy - 25.0 1004.0 3.8
27/03:30am SSE 1 3 - - - - 10 - - 25.1 1004.0 3.8
27/03:00am SE 4 5 - - - - 10 Mostly cloudy - 24.9 1004.2 3.8
27/02:30am SSE 1 3 - - - - 10 Partly cloudy - 25.9 1004.2 3.8
27/02:00am SE 2 4 - - - - 10 Partly cloudy - 25.3 1004.3 3.8
27/01:30am SSE 2 5 - - - - 10 Partly cloudy - 25.6 1004.8 3.8
27/01:00am S 5 9 - - - - 10 Partly cloudy - 26.0 1005.0 3.8
27/12:30am SSW 4 9 - - - - 10 Partly cloudy - 26.1 1005.5 3.8
27/12:00am S 6 9 - - - - 10 - - 25.7 1005.6 3.8
 
Date/Time
EST
Wind Sea
Height
m
Swell Vis
km
Cloud Weather Temp
°C
Press
MSL
hPa
Rain since
9am
mm
Dir  Spd
kts
Gust
kts
Height
m
Period
s
Dir
26/11:30pm SSE 5 8 - - - - 10 - - 25.8 1005.9 3.8
26/11:00pm S 6 9 - - - - 10 Partly cloudy - 26.3 1006.2 3.8
26/10:30pm SSE 3 5 - - - - 10 Cloudy - 26.0 1006.2 3.8
26/10:00pm S 8 12 - - - - 10 Partly cloudy - 26.3 1006.1 3.8
26/09:30pm S 5 12 - - - - 10 Partly cloudy - 26.2 1005.9 3.8
26/09:00pm S 5 9 - - - - 10 Mostly clear - 25.8 1005.7 3.8
26/08:30pm S 6 9 - - - - 10 Partly cloudy - 26.2 1005.1 3.8
26/08:00pm S 7 11 - - - - 10 - - 26.3 1005.0 3.8
26/07:30pm S 6 10 - - - - 10 - - 26.6 1004.8 3.8
26/07:00pm SSE 7 10 - - - - 10 Partly cloudy - 26.6 1004.4 3.8
26/06:30pm S 6 9 - - - - 10 - - 26.8 1004.2 3.8
26/06:00pm SSE 7 11 - - - - 10 Partly cloudy - 27.4 1004.0 3.8
26/05:30pm SSE 5 9 - - - - 10 - - 27.4 1003.8 3.8
26/05:00pm S 4 8 - - - - 10 Partly cloudy - 27.3 1003.5 3.8
26/04:30pm S 7 11 - - - - 10 Partly cloudy - 27.0 1003.3 3.8
26/04:15pm S 5 8 - - - - 10 Partly cloudy - 26.7 1003.3 3.8
26/04:00pm S 7 11 - - - - 10 Partly cloudy - 26.4 1003.2 3.8
26/03:58pm S 7 11 - - - - 10 Partly cloudy - 26.3 1003.2 3.8
26/03:46pm SE 5 9 - - - - 6 Partly cloudy - 27.0 1003.2 3.8
26/03:43pm SE 5 9 - - - - 6 Partly cloudy - 26.7 1003.2 3.8
26/03:30pm SSE 5 9 - - - - 10 Partly cloudy - 27.2 1003.2 3.2
26/03:00pm S 4 7 - - - - 10 Cloudy - 27.7 1003.3 2.8
26/02:30pm SE 6 9 - - - - 10 Partly cloudy - 28.5 1003.5 2.8
26/02:12pm SE 5 8 - - - - 10 Partly cloudy - 28.1 1003.7 2.8

Other formats

Comma delimited format used in spreadsheet applications
http://www.bom.gov.au/fwo/IDQ60701/IDQ60701.94287.axf

JavaScript Object Notation format (JSON) in row-major order
http://www.bom.gov.au/fwo/IDQ60701/IDQ60701.94287.json

Data quality

Most of these data are generated automatically and are frequently updated. Quality checks on data are not normally performed. It is possible for incorrect values to appear. Refer to information at About Latest Weather Observations and please check the disclaimer before using these data.